createdAt,value
2022-10-04T00:01:53.400Z,1.30
2022-10-04T00:04:42.645Z,1.20
2022-10-04T00:07:20.026Z,1.30
2022-10-04T00:09:52.435Z,1.40
2022-10-04T00:12:26.698Z,1.00
2022-10-04T00:15:00.146Z,1.10
2022-10-04T00:17:37.657Z,1.10
2022-10-04T00:20:44.498Z,1.20
2022-10-04T00:23:24.947Z,0.90
2022-10-04T00:26:01.825Z,1.10
2022-10-04T00:28:37.365Z,1.20
2022-10-04T00:31:26.666Z,1.20
2022-10-04T00:34:18.018Z,1.10
2022-10-04T00:36:55.746Z,1.20
2022-10-04T00:39:34.979Z,0.90
2022-10-04T00:42:07.013Z,1.10
2022-10-04T00:44:51.444Z,1.30
2022-10-04T00:47:31.705Z,1.60
2022-10-04T00:50:11.504Z,1.60
2022-10-04T00:52:44.326Z,1.10
2022-10-04T00:55:41.928Z,1.20
2022-10-04T00:58:21.815Z,1.10
2022-10-04T01:03:45.394Z,1.10
2022-10-04T01:06:15.372Z,1.10
2022-10-04T01:08:56.609Z,1.00
2022-10-04T01:11:29.247Z,1.30
2022-10-04T01:14:02.102Z,1.30
2022-10-04T01:16:34.817Z,1.50
2022-10-04T01:19:24.768Z,1.10
2022-10-04T01:24:38.002Z,1.40
2022-10-04T01:27:31.693Z,1.40
2022-10-04T01:30:00.766Z,1.10
2022-10-04T01:32:31.295Z,1.10
2022-10-04T01:34:59.628Z,1.40
2022-10-04T01:37:28.180Z,1.10
2022-10-04T01:39:56.403Z,1.40
2022-10-04T01:42:36.424Z,1.50
2022-10-04T01:47:43.873Z,1.20
2022-10-04T01:50:20.472Z,1.00
2022-10-04T01:52:58.619Z,1.30
2022-10-04T01:55:30.966Z,1.60
2022-10-04T01:58:10.882Z,1.20
2022-10-04T02:03:41.243Z,1.50
2022-10-04T02:06:11.669Z,1.50
2022-10-04T02:08:47.198Z,1.30
2022-10-04T02:11:23.003Z,1.00
2022-10-04T02:13:55.068Z,1.20
2022-10-04T02:16:24.962Z,1.60
2022-10-04T02:18:54.142Z,1.00
2022-10-04T02:21:23.452Z,1.30
2022-10-04T02:23:52.880Z,1.30
2022-10-04T02:26:21.494Z,1.30
2022-10-04T02:28:50.056Z,1.70
2022-10-04T02:31:40.660Z,1.00
2022-10-04T02:34:09.294Z,1.40
2022-10-04T02:36:39.601Z,1.20
2022-10-04T02:39:15.856Z,1.40
2022-10-04T02:41:46.467Z,1.20
2022-10-04T02:44:17.955Z,1.20
2022-10-04T02:46:58.058Z,1.30
2022-10-04T02:49:41.219Z,1.30
2022-10-04T02:52:21.120Z,1.20
2022-10-04T02:54:58.037Z,0.90
2022-10-04T02:57:26.464Z,1.50
2022-10-04T03:00:23.471Z,1.20
2022-10-04T03:03:16.727Z,1.10
2022-10-04T03:06:06.494Z,1.30
2022-10-04T03:11:16.141Z,1.20
2022-10-04T03:13:47.714Z,1.30
2022-10-04T03:16:17.062Z,1.70
2022-10-04T03:18:47.110Z,1.40
2022-10-04T03:21:17.938Z,1.60
2022-10-04T03:23:48.266Z,1.10
2022-10-04T03:26:19.397Z,1.40
2022-10-04T03:28:48.263Z,1.30
2022-10-04T03:31:16.953Z,1.40
2022-10-04T03:33:45.408Z,1.30
2022-10-04T03:36:17.108Z,1.40
2022-10-04T03:38:48.772Z,1.20
2022-10-04T03:41:17.069Z,1.20
2022-10-04T03:43:49.603Z,1.40
2022-10-04T03:46:20.036Z,1.20
2022-10-04T03:48:51.319Z,1.10
2022-10-04T03:51:23.156Z,1.40
2022-10-04T03:53:57.981Z,1.10
2022-10-04T03:56:29.839Z,1.20
2022-10-04T03:58:59.032Z,1.20
2022-10-04T04:01:38.835Z,1.10
2022-10-04T04:04:25.625Z,1.40
2022-10-04T04:07:06.158Z,0.90
2022-10-04T04:09:34.210Z,1.20
2022-10-04T04:12:07.063Z,1.10
2022-10-04T04:14:35.498Z,0.90
2022-10-04T04:17:42.883Z,1.20
2022-10-04T04:20:28.633Z,1.30
2022-10-04T04:23:14.686Z,1.10
2022-10-04T04:25:47.274Z,1.20
2022-10-04T04:28:27.525Z,1.10
2022-10-04T04:31:10.164Z,1.20
2022-10-04T04:33:45.226Z,1.30
2022-10-04T04:36:16.022Z,1.10
2022-10-04T04:39:37.579Z,1.30
2022-10-04T04:42:23.731Z,1.30
2022-10-04T04:44:56.436Z,1.20
2022-10-04T04:47:42.557Z,1.10
2022-10-04T04:50:16.577Z,1.30
2022-10-04T04:52:58.633Z,1.40
2022-10-04T04:55:39.908Z,1.30
2022-10-04T04:58:21.618Z,1.20
2022-10-04T05:01:18.499Z,1.50
2022-10-04T05:04:04.389Z,1.50
2022-10-04T05:06:34.609Z,1.40
2022-10-04T05:09:04.322Z,1.20
2022-10-04T05:11:39.054Z,1.50
2022-10-04T05:14:11.111Z,1.40
2022-10-04T05:16:55.947Z,1.30
2022-10-04T05:19:34.398Z,1.40
2022-10-04T05:22:15.206Z,1.00
2022-10-04T05:24:51.706Z,1.20
2022-10-04T05:27:37.213Z,1.30
2022-10-04T05:30:36.661Z,1.40
2022-10-04T05:33:09.268Z,1.20
2022-10-04T05:35:58.505Z,2.00
2022-10-04T05:38:38.020Z,1.80
2022-10-04T05:41:28.150Z,1.90
2022-10-04T05:44:00.251Z,1.40
2022-10-04T05:46:35.594Z,1.30
2022-10-04T05:49:16.726Z,1.40
2022-10-04T05:51:54.789Z,1.40
2022-10-04T05:54:26.601Z,1.90
2022-10-04T05:57:15.921Z,1.90
2022-10-04T06:00:14.057Z,1.50
2022-10-04T06:03:03.912Z,1.40
2022-10-04T06:05:40.875Z,1.40
2022-10-04T06:08:34.729Z,1.20
2022-10-04T06:11:29.596Z,2.50
2022-10-04T06:14:00.746Z,2.10
2022-10-04T06:16:44.290Z,1.40
2022-10-04T06:19:46.338Z,2.00
2022-10-04T06:22:17.238Z,1.70
2022-10-04T06:25:09.637Z,1.70
2022-10-04T06:28:19.174Z,2.20
2022-10-04T06:30:47.359Z,1.80
2022-10-04T06:33:29.013Z,2.40
2022-10-04T06:36:14.019Z,1.80
2022-10-04T06:38:46.295Z,1.80
2022-10-04T06:41:23.730Z,1.60
2022-10-04T06:44:16.058Z,1.80
2022-10-04T06:47:16.289Z,2.10
2022-10-04T06:50:23.133Z,1.50
2022-10-04T06:52:54.924Z,1.90
2022-10-04T06:55:38.942Z,2.30
2022-10-04T06:58:40.391Z,2.00
2022-10-04T07:01:28.257Z,1.60
2022-10-04T07:04:11.274Z,2.90
2022-10-04T07:07:20.619Z,1.80
2022-10-04T07:09:54.441Z,2.40
2022-10-04T07:12:23.890Z,2.20
2022-10-04T07:15:01.273Z,1.80
2022-10-04T07:17:43.423Z,2.00
2022-10-04T07:20:22.496Z,1.80
2022-10-04T07:22:55.889Z,1.60
2022-10-04T07:25:44.490Z,1.60
2022-10-04T07:28:36.742Z,1.50
2022-10-04T07:31:31.194Z,1.70
2022-10-04T07:34:12.054Z,1.90
2022-10-04T07:36:54.411Z,1.60
2022-10-04T07:39:34.493Z,1.80
2022-10-04T07:42:24.793Z,1.80
2022-10-04T07:45:12.584Z,1.60
2022-10-04T07:47:41.608Z,1.80
2022-10-04T07:50:36.603Z,1.90
2022-10-04T07:53:13.204Z,1.80
2022-10-04T07:55:50.593Z,2.20
2022-10-04T07:58:18.839Z,1.70
2022-10-04T08:00:55.389Z,1.90
2022-10-04T08:03:35.125Z,2.00
2022-10-04T08:08:49.228Z,2.20
2022-10-04T08:11:43.507Z,2.10
2022-10-04T08:14:24.178Z,1.60
2022-10-04T08:17:15.383Z,2.00
2022-10-04T08:20:08.540Z,1.70
2022-10-04T08:23:11.135Z,1.80
2022-10-04T08:25:52.221Z,2.40
2022-10-04T08:29:17.897Z,1.70
2022-10-04T08:32:07.868Z,1.60
2022-10-04T08:35:07.976Z,1.70
2022-10-04T08:38:09.631Z,1.40
2022-10-04T08:40:59.168Z,1.90
2022-10-04T08:43:34.250Z,1.80
2022-10-04T08:46:27.772Z,1.60
2022-10-04T08:49:46.774Z,1.70
2022-10-04T08:52:39.570Z,1.80
2022-10-04T08:55:35.274Z,1.40
2022-10-04T08:58:41.310Z,1.70
2022-10-04T09:01:28.000Z,1.30
2022-10-04T09:04:04.957Z,1.40
2022-10-04T09:07:00.498Z,1.60
2022-10-04T09:09:52.932Z,1.50
2022-10-04T09:13:05.310Z,1.00
2022-10-04T09:15:54.100Z,1.10
2022-10-04T09:18:29.512Z,1.50
2022-10-04T09:21:01.317Z,1.30
2022-10-04T09:23:32.248Z,1.30
2022-10-04T09:26:15.545Z,1.60
2022-10-04T09:29:05.345Z,1.50
2022-10-04T09:31:51.465Z,1.30
2022-10-04T09:34:37.404Z,1.10
2022-10-04T09:37:15.114Z,1.60
2022-10-04T09:40:15.258Z,1.10
2022-10-04T09:43:21.679Z,1.00
2022-10-04T09:46:12.171Z,1.30
2022-10-04T09:48:56.804Z,1.30
2022-10-04T09:51:25.553Z,1.30
2022-10-04T09:53:59.698Z,1.20
2022-10-04T09:57:01.363Z,1.20
2022-10-04T09:59:52.079Z,1.10
2022-10-04T10:02:29.382Z,1.30
2022-10-04T10:05:35.355Z,1.10
2022-10-04T10:08:37.053Z,1.30
2022-10-04T10:11:49.841Z,1.50
2022-10-04T10:14:48.950Z,1.20
2022-10-04T10:17:23.610Z,1.30
2022-10-04T10:20:00.647Z,1.20
2022-10-04T10:23:16.919Z,1.10
2022-10-04T10:26:15.523Z,0.90
2022-10-04T10:28:46.407Z,1.50
2022-10-04T10:31:48.238Z,1.20
2022-10-04T10:34:46.820Z,1.30
2022-10-04T10:37:24.982Z,1.00
2022-10-04T10:39:58.775Z,1.20
2022-10-04T10:42:47.766Z,1.10
2022-10-04T10:45:52.749Z,1.00
2022-10-04T10:48:26.622Z,1.40
2022-10-04T10:51:18.675Z,1.20
2022-10-04T10:54:20.848Z,1.30
2022-10-04T10:57:26.500Z,1.40
2022-10-04T11:00:18.960Z,1.00
2022-10-04T11:02:50.785Z,1.40
2022-10-04T11:05:53.583Z,1.50
2022-10-04T11:08:36.889Z,1.20
2022-10-04T11:11:23.882Z,1.70
2022-10-04T11:14:19.787Z,1.30
2022-10-04T11:17:14.368Z,1.10
2022-10-04T11:20:28.293Z,1.60
2022-10-04T11:23:09.011Z,1.50
2022-10-04T11:25:46.604Z,1.10
2022-10-04T11:28:46.874Z,1.50
2022-10-04T11:31:18.128Z,1.20
2022-10-04T11:34:17.764Z,1.10
2022-10-04T11:42:40.136Z,1.40
2022-10-04T11:45:38.410Z,1.60
2022-10-04T11:48:36.196Z,1.10
2022-10-04T11:51:35.297Z,1.20
2022-10-04T11:54:48.024Z,1.40
2022-10-04T11:57:57.275Z,1.60
2022-10-04T12:00:46.989Z,1.60
2022-10-04T12:06:14.163Z,1.40
2022-10-04T12:09:06.183Z,1.40
2022-10-04T12:12:08.066Z,1.30
2022-10-04T12:14:53.892Z,1.70
2022-10-04T12:17:53.072Z,1.60
2022-10-04T12:20:28.927Z,1.30
2022-10-04T12:22:56.978Z,1.30
2022-10-04T12:26:02.243Z,1.50
2022-10-04T12:28:52.108Z,1.20
2022-10-04T12:31:26.540Z,1.50
2022-10-04T12:34:16.056Z,1.40
2022-10-04T12:37:16.647Z,1.30
2022-10-04T12:40:20.003Z,1.20
2022-10-04T12:42:55.473Z,1.90
2022-10-04T12:45:52.950Z,1.50
2022-10-04T12:48:56.572Z,1.50
2022-10-04T12:51:50.017Z,1.30
2022-10-04T12:54:42.747Z,2.40
2022-10-04T12:57:28.852Z,1.50
2022-10-04T13:30:58.501Z,1.40
2022-10-04T13:33:42.600Z,1.40
2022-10-04T13:36:22.167Z,1.30
2022-10-04T13:39:20.964Z,1.40
2022-10-04T13:42:30.203Z,1.40
2022-10-04T13:45:32.284Z,1.40
2022-10-04T13:48:09.264Z,1.70
2022-10-04T13:50:46.497Z,1.50
2022-10-04T13:53:54.350Z,1.20
2022-10-04T14:01:12.986Z,1.40
2022-10-04T14:03:41.306Z,1.50
2022-10-04T14:06:38.605Z,1.30
2022-10-04T14:09:27.033Z,1.40
2022-10-04T14:12:56.866Z,1.30
2022-10-04T14:15:53.541Z,1.30
2022-10-04T14:18:40.434Z,2.10
2022-10-04T14:21:19.839Z,1.70
2022-10-04T14:27:03.014Z,3.10
2022-10-04T14:29:52.807Z,2.10
2022-10-04T14:32:54.865Z,2.10
2022-10-04T14:36:02.685Z,1.70
2022-10-04T14:50:23.197Z,2.50
2022-10-04T14:52:52.126Z,3.80
2022-10-04T14:55:44.856Z,2.80
2022-10-04T14:58:25.734Z,2.50
2022-10-04T15:01:21.858Z,2.20
2022-10-04T15:04:41.739Z,2.90
2022-10-04T15:07:36.902Z,3.40
2022-10-04T15:10:27.949Z,3.00
2022-10-04T15:13:26.899Z,3.20
2022-10-04T15:16:23.257Z,7.20
2022-10-04T15:18:56.383Z,5.20
2022-10-04T15:21:45.836Z,5.10
2022-10-04T15:24:16.893Z,3.50
2022-10-04T15:26:50.544Z,2.90
2022-10-04T15:29:24.438Z,2.20
2022-10-04T15:31:52.544Z,2.20
2022-10-04T15:34:58.285Z,2.40
2022-10-04T15:37:44.146Z,2.20
2022-10-04T15:40:51.284Z,1.90
2022-10-04T15:43:31.450Z,1.80
2022-10-04T15:46:32.029Z,1.60
2022-10-04T15:49:17.163Z,1.70
2022-10-04T15:52:06.494Z,2.00
2022-10-04T15:55:10.366Z,1.90
2022-10-04T15:58:16.943Z,1.70
2022-10-04T16:01:13.343Z,1.70
2022-10-04T16:04:15.682Z,1.70
2022-10-04T16:06:58.656Z,2.10
2022-10-04T16:09:49.519Z,1.90
2022-10-04T16:12:33.439Z,1.90
2022-10-04T16:15:19.544Z,1.70
2022-10-04T16:18:25.320Z,2.00
2022-10-04T16:21:12.940Z,1.90
2022-10-04T16:23:43.269Z,1.80
2022-10-04T16:26:16.126Z,1.80
2022-10-04T16:28:59.415Z,1.80
2022-10-04T16:31:39.737Z,1.70
2022-10-04T16:34:08.187Z,2.20
2022-10-04T16:36:59.729Z,2.90
2022-10-04T16:39:57.966Z,3.00
2022-10-04T16:42:54.738Z,3.10
2022-10-04T16:45:42.470Z,3.20
2022-10-04T16:48:22.800Z,3.30
2022-10-04T16:51:00.302Z,2.60
2022-10-04T16:53:45.001Z,3.00
2022-10-04T16:56:33.480Z,2.70
2022-10-04T16:59:03.042Z,2.80
2022-10-04T17:01:55.740Z,2.50
2022-10-04T17:04:39.678Z,2.20
2022-10-04T17:07:07.731Z,3.70
2022-10-04T17:09:40.444Z,2.60
2022-10-04T17:12:37.050Z,2.60
2022-10-04T17:15:14.448Z,2.40
2022-10-04T17:18:06.385Z,2.90
2022-10-04T17:20:40.859Z,2.80
2022-10-04T17:23:42.675Z,2.90
2022-10-04T17:26:32.632Z,2.80
2022-10-04T17:29:15.874Z,2.60
2022-10-04T17:32:10.687Z,2.50
2022-10-04T17:35:06.867Z,2.50
2022-10-04T17:37:50.094Z,2.80
2022-10-04T17:40:28.854Z,2.60
2022-10-04T17:43:33.005Z,2.80
2022-10-04T17:46:19.718Z,3.00
2022-10-04T17:49:53.012Z,3.70
2022-10-04T17:52:50.535Z,4.00
2022-10-04T17:55:42.133Z,4.70
2022-10-04T17:58:20.751Z,4.80
2022-10-04T18:01:01.376Z,4.70
2022-10-04T18:03:52.607Z,4.60
2022-10-04T18:06:34.943Z,4.90
2022-10-04T18:09:27.410Z,4.50
2022-10-04T18:12:11.655Z,4.70
2022-10-04T18:15:06.224Z,4.70
2022-10-04T18:17:42.406Z,4.70
2022-10-04T18:20:31.549Z,4.50
2022-10-04T18:23:01.111Z,5.20
2022-10-04T18:25:35.513Z,5.30
2022-10-04T18:28:10.561Z,5.50
2022-10-04T18:30:45.990Z,5.90
2022-10-04T18:33:25.847Z,7.20
2022-10-04T18:36:14.189Z,7.00
2022-10-04T18:38:58.180Z,7.50
2022-10-04T18:41:46.656Z,7.20
2022-10-04T18:44:16.881Z,7.20
2022-10-04T18:46:51.288Z,7.40
2022-10-04T18:49:30.416Z,7.00
2022-10-04T18:52:10.941Z,6.80
2022-10-04T18:55:03.596Z,6.80
2022-10-04T18:58:00.924Z,6.60
2022-10-04T19:01:06.315Z,6.50
2022-10-04T19:03:53.284Z,8.70
2022-10-04T19:06:34.221Z,10.40
2022-10-04T19:09:21.050Z,11.80
2022-10-04T19:12:02.571Z,13.60
2022-10-04T19:14:43.971Z,10.90
2022-10-04T19:17:23.489Z,9.50
2022-10-04T19:19:57.639Z,7.40
2022-10-04T19:22:40.954Z,6.00
2022-10-04T19:25:15.977Z,5.20
2022-10-04T19:28:04.554Z,4.20
2022-10-04T19:31:00.818Z,4.80
2022-10-04T19:33:42.636Z,4.60
2022-10-04T19:36:39.418Z,4.80
2022-10-04T19:39:15.862Z,4.80
2022-10-04T19:41:49.644Z,4.30
2022-10-04T19:44:48.419Z,3.90
2022-10-04T19:47:33.871Z,3.40
2022-10-04T19:50:16.304Z,3.80
2022-10-04T19:52:53.565Z,3.40
2022-10-04T19:55:22.342Z,3.40
2022-10-04T20:00:28.913Z,2.80
2022-10-04T20:02:57.458Z,3.70
2022-10-04T20:05:27.556Z,3.10
2022-10-04T20:08:11.664Z,3.00
2022-10-04T20:10:51.577Z,3.00
2022-10-04T20:13:25.549Z,3.30
2022-10-04T20:16:20.439Z,2.90
2022-10-04T20:19:00.878Z,3.10
2022-10-04T20:21:34.576Z,3.30
2022-10-04T20:36:09.686Z,2.70
2022-10-04T20:39:12.556Z,3.10
2022-10-04T20:42:03.350Z,3.50
2022-10-04T20:44:54.423Z,3.20
2022-10-04T20:47:40.655Z,2.90
2022-10-04T20:50:28.256Z,3.30
2022-10-04T20:53:00.586Z,2.90
2022-10-04T20:55:33.043Z,3.30
2022-10-04T20:58:21.678Z,3.40
2022-10-04T21:01:02.589Z,3.50
2022-10-04T21:03:30.978Z,3.80
2022-10-04T21:06:13.557Z,4.00
2022-10-04T21:08:41.855Z,4.20
2022-10-04T21:11:20.297Z,4.20
2022-10-04T21:13:59.715Z,5.30
2022-10-04T21:16:37.038Z,5.90
2022-10-04T21:19:33.639Z,5.60
2022-10-04T21:22:07.058Z,5.10
2022-10-04T21:24:43.876Z,4.40
2022-10-04T21:27:25.521Z,4.40
2022-10-04T21:29:53.906Z,3.80
2022-10-04T21:32:24.650Z,3.50
2022-10-04T21:34:55.058Z,3.70
2022-10-04T21:37:23.313Z,3.40
2022-10-04T21:39:52.987Z,3.00
2022-10-04T21:42:23.767Z,3.50
2022-10-04T21:44:52.219Z,3.50
2022-10-04T21:47:31.200Z,3.30
2022-10-04T21:49:59.503Z,3.20
2022-10-04T21:52:27.716Z,3.10
2022-10-04T21:54:55.938Z,3.00
2022-10-04T21:57:24.175Z,3.20
2022-10-04T21:59:53.029Z,3.40
2022-10-04T22:02:21.398Z,3.10
2022-10-04T22:04:49.652Z,3.50
2022-10-04T22:07:18.230Z,3.10
2022-10-04T22:09:46.280Z,3.00
2022-10-04T22:12:18.791Z,3.00
2022-10-04T22:15:09.777Z,3.10
2022-10-04T22:17:40.260Z,3.00
2022-10-04T22:20:08.777Z,3.00
2022-10-04T22:22:39.684Z,3.30
2022-10-04T22:25:20.283Z,3.20
2022-10-04T22:27:48.655Z,3.30
2022-10-04T22:30:21.850Z,3.40
2022-10-04T22:32:50.600Z,3.00
2022-10-04T22:35:20.419Z,3.40
2022-10-04T22:37:49.682Z,3.20
2022-10-04T22:40:24.065Z,3.50
2022-10-04T22:42:54.327Z,3.60
2022-10-04T22:45:29.653Z,3.80
2022-10-04T22:48:00.167Z,3.40
2022-10-04T22:50:28.210Z,3.90
2022-10-04T22:52:56.743Z,3.10
2022-10-04T22:55:25.315Z,3.20
2022-10-04T22:57:53.602Z,3.20
2022-10-04T23:00:21.883Z,3.10
2022-10-04T23:02:50.057Z,3.00
2022-10-04T23:05:19.904Z,3.20
2022-10-04T23:10:19.600Z,3.20
2022-10-04T23:12:52.160Z,3.60
2022-10-04T23:15:21.124Z,3.60
2022-10-04T23:17:55.994Z,3.10
2022-10-04T23:20:24.259Z,3.30
2022-10-04T23:22:54.505Z,3.30
2022-10-04T23:25:29.009Z,3.00
2022-10-04T23:28:01.574Z,3.10
2022-10-04T23:30:29.941Z,3.90
2022-10-04T23:33:01.344Z,3.60
2022-10-04T23:35:33.236Z,3.50
2022-10-04T23:38:07.103Z,3.30
2022-10-04T23:40:35.468Z,3.40
2022-10-04T23:43:05.784Z,3.40
2022-10-04T23:45:35.579Z,3.50
2022-10-04T23:50:36.619Z,3.50
2022-10-04T23:53:10.875Z,3.80
2022-10-04T23:55:42.641Z,3.70
2022-10-04T23:58:23.988Z,4.40
